Grove, Maine
Current Conditions -  °F | °C
As of 1:55 AM on Sunday 21 Dec 2014 (Local Time) from KBHB Reporting Station
Overcast Overcast  
Wind Chill: 27°   Ceiling: 3700
Heat Index: 27°   Visibility: 10mi
Dew Point: 27°   Wind: 3mph
Humidity: 100%   Direction: 340°NNW
Pressure: 30.34"   Gusts: NA
Location:  45°N, 67.4328°W
Report Text: KBHB 210655Z AUTO 34003KT 10SM OVC037 M03/M03 A3034 RMK AO1
Loading
Personal Weather Stations






























Interactive Weather Map New forecast layout! Learn more

10-Day Weather Forecast

Advertisements
Track Severe Weather on mobile